createdAt,value
2022-12-14T00:01:48.969Z,8.40
2022-12-14T00:04:17.635Z,10.23
2022-12-14T00:06:46.951Z,9.33
2022-12-14T00:09:14.826Z,9.73
2022-12-14T00:11:42.591Z,9.60
2022-12-14T00:14:10.397Z,7.97
2022-12-14T00:16:38.362Z,10.73
2022-12-14T00:19:06.329Z,7.90
2022-12-14T00:21:34.107Z,8.30
2022-12-14T00:24:03.730Z,8.30
2022-12-14T00:26:32.878Z,8.00
2022-12-14T00:29:02.417Z,7.53
2022-12-14T00:31:31.868Z,8.87
2022-12-14T00:34:01.100Z,8.40
2022-12-14T00:36:31.436Z,8.27
2022-12-14T00:38:59.937Z,10.03
2022-12-14T00:41:29.263Z,7.30
2022-12-14T00:43:57.256Z,7.43
2022-12-14T00:46:25.165Z,8.00
2022-12-14T00:48:53.228Z,8.80
2022-12-14T00:51:21.025Z,8.23
2022-12-14T00:53:48.801Z,8.60
2022-12-14T00:56:16.696Z,8.57
2022-12-14T00:58:51.492Z,8.00
2022-12-14T01:01:19.625Z,8.20
2022-12-14T01:03:47.698Z,8.03
2022-12-14T01:06:16.989Z,8.40
2022-12-14T01:08:44.857Z,8.50
2022-12-14T01:11:13.529Z,8.27
2022-12-14T01:13:42.228Z,8.60
2022-12-14T01:16:13.742Z,6.93
2022-12-14T01:18:43.349Z,8.40
2022-12-14T01:21:13.744Z,7.93
2022-12-14T01:23:41.983Z,8.00
2022-12-14T01:26:09.911Z,9.30
2022-12-14T01:28:37.901Z,7.03
2022-12-14T01:31:08.091Z,7.40
2022-12-14T01:33:37.533Z,8.00
2022-12-14T01:36:07.381Z,8.40
2022-12-14T01:38:35.493Z,8.60
2022-12-14T01:41:03.613Z,8.60
2022-12-14T01:43:46.969Z,8.63
2022-12-14T01:46:21.300Z,8.20
2022-12-14T01:48:54.273Z,7.40
2022-12-14T01:51:22.191Z,8.37
2022-12-14T01:53:50.231Z,9.00
2022-12-14T01:56:18.765Z,8.47
2022-12-14T01:58:46.580Z,8.20
2022-12-14T02:01:14.861Z,7.83
2022-12-14T02:03:47.228Z,8.63
2022-12-14T02:06:20.947Z,8.07
2022-12-14T02:08:52.037Z,7.13
2022-12-14T02:11:27.579Z,8.00
2022-12-14T02:13:55.375Z,8.43
2022-12-14T02:16:23.241Z,7.57
2022-12-14T02:18:51.069Z,8.00
2022-12-14T02:21:24.956Z,8.57
2022-12-14T02:24:34.325Z,9.87
2022-12-14T02:27:22.450Z,9.10
2022-12-14T02:30:04.976Z,7.70
2022-12-14T02:32:48.700Z,7.80
2022-12-14T02:35:22.587Z,7.07
2022-12-14T02:37:58.262Z,8.60
2022-12-14T02:40:34.308Z,6.20
2022-12-14T02:43:11.686Z,8.60
2022-12-14T02:45:45.981Z,8.00
2022-12-14T02:48:19.416Z,8.13
2022-12-14T02:50:54.907Z,7.63
2022-12-14T02:53:30.165Z,8.30
2022-12-14T02:56:02.796Z,7.60
2022-12-14T02:58:36.036Z,9.60
2022-12-14T03:01:06.152Z,8.33
2022-12-14T03:03:34.002Z,9.87
2022-12-14T03:06:04.994Z,7.70
2022-12-14T03:08:35.174Z,7.63
2022-12-14T03:11:06.007Z,10.33
2022-12-14T03:13:37.630Z,8.20
2022-12-14T03:16:15.413Z,8.27
2022-12-14T03:18:50.926Z,8.63
2022-12-14T03:21:25.033Z,8.83
2022-12-14T03:23:53.802Z,8.33
2022-12-14T03:26:26.985Z,8.03
2022-12-14T03:28:58.444Z,8.07
2022-12-14T03:31:33.255Z,8.37
2022-12-14T03:34:03.991Z,7.80
2022-12-14T03:36:43.618Z,6.47
2022-12-14T03:39:16.111Z,8.10
2022-12-14T03:41:51.131Z,8.33
2022-12-14T03:44:33.091Z,7.30
2022-12-14T03:47:14.934Z,7.47
2022-12-14T03:49:56.177Z,8.20
2022-12-14T03:52:28.622Z,7.40
2022-12-14T03:55:06.236Z,7.17
2022-12-14T03:57:49.654Z,7.80
2022-12-14T04:00:21.418Z,6.87
2022-12-14T04:02:59.342Z,6.90
2022-12-14T04:05:33.244Z,7.90
2022-12-14T04:08:08.582Z,7.75
2022-12-14T04:11:00.203Z,6.53
2022-12-14T04:13:51.550Z,7.20
2022-12-14T04:16:44.909Z,7.47
2022-12-14T04:19:21.424Z,6.20
2022-12-14T04:21:53.204Z,7.40
2022-12-14T04:24:44.169Z,7.53
2022-12-14T04:27:17.676Z,7.70
2022-12-14T04:29:56.564Z,7.43
2022-12-14T04:32:28.583Z,6.57
2022-12-14T04:35:02.097Z,7.07
2022-12-14T04:37:31.547Z,8.10
2022-12-14T04:40:05.298Z,6.70
2022-12-14T04:42:36.748Z,7.28
2022-12-14T04:45:10.363Z,7.50
2022-12-14T04:47:45.479Z,7.83
2022-12-14T04:50:20.795Z,7.03
2022-12-14T04:52:52.722Z,7.40
2022-12-14T04:55:27.821Z,7.10
2022-12-14T04:58:00.049Z,8.53
2022-12-14T05:00:28.410Z,7.38
2022-12-14T05:03:15.605Z,6.90
2022-12-14T05:05:53.329Z,8.60
2022-12-14T05:08:30.028Z,7.37
2022-12-14T05:11:30.134Z,7.83
2022-12-14T05:13:52.245Z,7.20
2022-12-14T05:16:22.831Z,7.13
2022-12-14T05:18:51.420Z,7.30
2022-12-14T05:21:38.251Z,6.53
2022-12-14T05:24:07.009Z,7.50
2022-12-14T05:26:35.321Z,7.50
2022-12-14T05:29:03.118Z,7.30
2022-12-14T05:31:31.115Z,6.30
2022-12-14T05:33:58.931Z,6.67
2022-12-14T05:36:28.361Z,7.78
2022-12-14T05:38:56.335Z,6.40
2022-12-14T05:41:24.189Z,6.10
2022-12-14T05:43:52.290Z,6.73
2022-12-14T05:46:20.115Z,7.00
2022-12-14T05:48:49.517Z,5.93
2022-12-14T05:51:17.969Z,6.40
2022-12-14T05:53:47.166Z,5.60
2022-12-14T05:56:15.112Z,6.73
2022-12-14T05:58:42.890Z,6.27
2022-12-14T06:01:18.503Z,7.17
2022-12-14T06:03:47.430Z,6.20
2022-12-14T06:06:15.816Z,7.07
2022-12-14T06:08:45.349Z,6.90
2022-12-14T06:11:16.410Z,6.63
2022-12-14T06:13:44.828Z,7.32
2022-12-14T06:16:14.258Z,6.33
2022-12-14T06:18:43.909Z,7.00
2022-12-14T06:21:12.352Z,7.95
2022-12-14T06:23:40.188Z,7.47
2022-12-14T06:26:08.064Z,5.90
2022-12-14T06:28:37.673Z,7.53
2022-12-14T06:31:06.045Z,6.85
2022-12-14T06:33:35.007Z,7.80
2022-12-14T06:36:03.695Z,6.93
2022-12-14T06:38:31.610Z,6.70
2022-12-14T06:40:59.461Z,7.25
2022-12-14T06:43:28.040Z,6.70
2022-12-14T06:45:57.463Z,8.25
2022-12-14T06:48:25.307Z,6.10
2022-12-14T06:50:53.110Z,7.03
2022-12-14T06:53:20.944Z,8.23
2022-12-14T06:55:49.384Z,7.10
2022-12-14T06:58:17.298Z,6.97
2022-12-14T07:00:45.173Z,5.50
2022-12-14T07:03:14.381Z,7.40
2022-12-14T07:05:47.306Z,7.40
2022-12-14T07:08:16.825Z,6.75
2022-12-14T07:10:44.667Z,5.70
2022-12-14T07:13:12.436Z,6.40
2022-12-14T07:15:40.573Z,7.20
2022-12-14T07:18:08.682Z,6.70
2022-12-14T07:20:37.923Z,5.63
2022-12-14T07:23:05.697Z,6.80
2022-12-14T07:25:33.492Z,7.38
2022-12-14T07:28:01.319Z,7.40
2022-12-14T07:30:29.181Z,6.17
2022-12-14T07:32:56.991Z,7.63
2022-12-14T07:35:25.620Z,6.75
2022-12-14T07:37:54.741Z,6.13
2022-12-14T07:40:22.567Z,5.50
2022-12-14T07:42:50.537Z,7.30
2022-12-14T07:45:18.371Z,6.60
2022-12-14T07:47:46.288Z,7.43
2022-12-14T07:50:14.084Z,5.90
2022-12-14T07:52:41.857Z,6.73
2022-12-14T07:55:11.385Z,6.75
2022-12-14T07:57:39.175Z,6.10
2022-12-14T08:00:08.064Z,7.03
2022-12-14T08:02:35.996Z,6.50
2022-12-14T08:05:07.894Z,6.00
2022-12-14T08:07:40.041Z,5.90
2022-12-14T08:10:08.750Z,5.70
2022-12-14T08:12:37.917Z,7.23
2022-12-14T08:15:06.733Z,6.90
2022-12-14T08:17:34.531Z,6.53
2022-12-14T08:20:02.356Z,9.40
2022-12-14T08:22:30.115Z,6.87
2022-12-14T08:24:58.022Z,7.97
2022-12-14T08:27:26.017Z,5.17
2022-12-14T08:29:55.174Z,5.17
2022-12-14T08:32:23.112Z,6.07
2022-12-14T08:34:50.921Z,5.80
2022-12-14T08:37:18.721Z,4.67
2022-12-14T08:39:47.708Z,6.20
2022-12-14T08:42:18.021Z,5.40
2022-12-14T08:44:45.820Z,6.37
2022-12-14T08:47:18.703Z,6.77
2022-12-14T08:49:46.568Z,6.53
2022-12-14T08:52:14.398Z,6.50
2022-12-14T08:54:42.187Z,7.25
2022-12-14T08:57:10.002Z,6.30
2022-12-14T09:00:00.881Z,7.17
2022-12-14T09:02:27.563Z,5.97
2022-12-14T09:04:55.584Z,5.87
2022-12-14T09:07:23.368Z,6.50
2022-12-14T09:09:51.138Z,6.73
2022-12-14T09:12:19.014Z,6.30
2022-12-14T09:14:49.156Z,8.10
2022-12-14T09:17:17.405Z,7.33
2022-12-14T09:19:46.657Z,6.33
2022-12-14T09:22:14.592Z,7.20
2022-12-14T09:24:42.523Z,8.10
2022-12-14T09:27:10.485Z,6.53
2022-12-14T09:29:38.345Z,7.10
2022-12-14T09:32:06.601Z,8.90
2022-12-14T09:34:34.488Z,8.20
2022-12-14T09:37:04.780Z,7.47
2022-12-14T09:39:32.854Z,7.80
2022-12-14T09:42:17.023Z,8.97
2022-12-14T09:44:53.544Z,8.90
2022-12-14T09:47:26.880Z,10.00
2022-12-14T09:49:56.631Z,10.70
2022-12-14T09:52:34.895Z,13.00
2022-12-14T09:55:07.006Z,10.40
2022-12-14T09:57:38.959Z,10.33
2022-12-14T10:00:14.429Z,10.40
2022-12-14T10:03:01.522Z,10.20
2022-12-14T10:05:45.716Z,11.20
2022-12-14T10:08:22.070Z,10.60
2022-12-14T10:11:02.722Z,10.70
2022-12-14T10:13:42.050Z,10.77
2022-12-14T10:16:20.404Z,11.07
2022-12-14T10:19:02.729Z,10.30
2022-12-14T10:21:49.691Z,9.77
2022-12-14T10:24:23.983Z,9.40
2022-12-14T10:26:54.114Z,9.10
2022-12-14T10:29:37.192Z,9.43
2022-12-14T10:32:16.398Z,9.90
2022-12-14T10:34:44.560Z,8.33
2022-12-14T10:37:26.536Z,8.50
2022-12-14T10:40:26.234Z,9.63
2022-12-14T10:43:23.073Z,9.40
2022-12-14T10:46:00.900Z,9.43
2022-12-14T10:48:45.129Z,8.77
2022-12-14T10:51:18.061Z,8.60
2022-12-14T10:53:51.363Z,8.93
2022-12-14T10:56:25.265Z,8.30
2022-12-14T10:59:36.999Z,7.90
2022-12-14T11:02:10.211Z,8.77
2022-12-14T11:04:43.435Z,8.70
2022-12-14T11:07:12.859Z,8.63
2022-12-14T11:09:41.584Z,8.90
2022-12-14T11:12:21.441Z,8.70
2022-12-14T11:14:56.287Z,9.17
2022-12-14T11:17:35.751Z,9.20
2022-12-14T11:20:16.413Z,9.40
2022-12-14T11:22:46.156Z,8.70
2022-12-14T11:25:34.881Z,10.07
2022-12-14T11:28:16.566Z,9.60
2022-12-14T11:30:54.528Z,9.00
2022-12-14T11:33:22.921Z,9.33
2022-12-14T11:35:52.327Z,10.40
2022-12-14T11:38:20.615Z,8.93
2022-12-14T11:40:48.488Z,11.07
2022-12-14T11:43:26.113Z,10.63
2022-12-14T11:45:56.002Z,10.10
2022-12-14T11:48:25.596Z,9.67
2022-12-14T11:50:55.327Z,9.90
2022-12-14T11:53:24.412Z,9.30
2022-12-14T11:55:56.960Z,10.60
2022-12-14T11:58:29.973Z,10.13
2022-12-14T12:01:00.490Z,8.90
2022-12-14T12:03:34.355Z,9.27
2022-12-14T12:06:06.285Z,10.40
2022-12-14T12:08:39.078Z,9.73
2022-12-14T12:11:16.523Z,11.23
2022-12-14T12:13:48.314Z,11.17
2022-12-14T12:16:18.367Z,11.13
2022-12-14T12:18:49.509Z,10.23
2022-12-14T12:21:20.784Z,10.67
2022-12-14T12:23:54.115Z,11.33
2022-12-14T12:26:25.623Z,10.90
2022-12-14T12:29:01.160Z,11.37
2022-12-14T12:31:35.246Z,12.17
2022-12-14T12:34:10.016Z,10.43
2022-12-14T12:36:51.578Z,12.10
2022-12-14T12:39:26.829Z,11.03
2022-12-14T12:42:05.617Z,10.33
2022-12-14T12:44:49.881Z,11.50
2022-12-14T12:47:29.041Z,10.80
2022-12-14T12:50:06.377Z,10.83
2022-12-14T12:52:42.163Z,12.03
2022-12-14T12:55:15.915Z,11.60
2022-12-14T12:57:47.375Z,10.90
2022-12-14T13:00:19.863Z,12.20
2022-12-14T13:02:51.663Z,12.00
2022-12-14T13:05:45.895Z,11.53
2022-12-14T13:08:17.267Z,12.17
2022-12-14T13:11:17.367Z,11.43
2022-12-14T13:13:37.767Z,12.53
2022-12-14T13:16:14.403Z,11.67
2022-12-14T13:19:04.468Z,11.93
2022-12-14T13:21:40.095Z,11.90
2022-12-14T13:24:16.533Z,12.20
2022-12-14T13:27:19.788Z,12.90
2022-12-14T13:29:58.180Z,12.00
2022-12-14T13:32:43.130Z,12.33
2022-12-14T13:35:24.153Z,12.73
2022-12-14T13:38:18.262Z,11.73
2022-12-14T13:41:11.531Z,11.07
2022-12-14T13:43:56.949Z,11.90
2022-12-14T13:46:27.076Z,12.40
2022-12-14T13:49:00.708Z,12.37
2022-12-14T13:51:30.872Z,14.33
2022-12-14T13:54:00.095Z,13.37
2022-12-14T13:56:33.533Z,11.60
2022-12-14T13:59:05.443Z,12.17
2022-12-14T14:01:54.191Z,13.53
2022-12-14T14:04:25.989Z,12.97
2022-12-14T14:06:56.572Z,12.67
2022-12-14T14:09:57.949Z,13.33
2022-12-14T14:12:44.348Z,13.07
2022-12-14T14:16:19.013Z,12.17
2022-12-14T14:18:38.111Z,12.83
2022-12-14T14:21:58.800Z,12.10
2022-12-14T14:24:28.009Z,12.20
2022-12-14T14:27:01.077Z,12.70
2022-12-14T14:29:30.906Z,13.80
2022-12-14T14:32:01.502Z,12.50
2022-12-14T14:34:46.178Z,12.07
2022-12-14T14:37:28.214Z,13.33
2022-12-14T14:40:16.613Z,13.10
2022-12-14T14:42:52.885Z,12.50
2022-12-14T14:45:30.134Z,12.17
2022-12-14T14:48:00.362Z,11.93
2022-12-14T14:50:32.240Z,11.53
2022-12-14T14:53:13.261Z,11.50
2022-12-14T14:56:03.963Z,12.13
2022-12-14T14:58:35.187Z,12.70
2022-12-14T15:01:20.860Z,12.33
2022-12-14T15:03:57.236Z,13.70
2022-12-14T15:06:29.234Z,12.67
2022-12-14T15:09:06.283Z,12.17
2022-12-14T15:11:42.752Z,13.60
2022-12-14T15:14:30.162Z,12.13
2022-12-14T15:16:58.007Z,12.60
2022-12-14T15:19:30.170Z,13.50
2022-12-14T15:22:00.866Z,12.23
2022-12-14T15:24:34.111Z,12.67
2022-12-14T15:27:10.456Z,12.07
2022-12-14T15:29:38.323Z,12.47
2022-12-14T15:32:06.602Z,11.57
2022-12-14T15:34:34.459Z,11.80
2022-12-14T15:37:02.354Z,12.07
2022-12-14T15:39:39.731Z,12.17
2022-12-14T15:42:13.282Z,12.90
2022-12-14T15:44:50.159Z,12.60
2022-12-14T15:47:26.343Z,13.50
2022-12-14T15:49:59.751Z,12.10
2022-12-14T15:52:31.253Z,12.33
2022-12-14T15:55:01.244Z,13.80
2022-12-14T15:57:29.505Z,14.23
2022-12-14T15:59:59.216Z,14.53
2022-12-14T16:02:30.613Z,16.00
2022-12-14T16:05:01.420Z,14.37
2022-12-14T16:07:34.360Z,13.83
2022-12-14T16:10:07.194Z,14.03
2022-12-14T16:12:45.197Z,12.00
2022-12-14T16:15:19.664Z,12.20
2022-12-14T16:17:48.006Z,12.33
2022-12-14T16:20:22.278Z,12.93
2022-12-14T16:23:02.777Z,12.70
2022-12-14T16:25:33.358Z,11.87
2022-12-14T16:28:20.912Z,11.87
2022-12-14T16:30:57.657Z,12.63
2022-12-14T16:33:26.272Z,12.50
2022-12-14T16:36:03.325Z,15.33
2022-12-14T16:38:32.108Z,13.20
2022-12-14T16:41:03.409Z,12.30
2022-12-14T16:43:35.253Z,12.77
2022-12-14T16:46:21.102Z,14.40
2022-12-14T16:49:21.154Z,12.70
2022-12-14T16:52:07.217Z,11.63
2022-12-14T16:54:36.617Z,12.70
2022-12-14T16:57:08.577Z,12.80
2022-12-14T16:59:42.086Z,13.10
2022-12-14T17:02:32.871Z,11.70
2022-12-14T17:05:03.582Z,12.90
2022-12-14T17:07:34.080Z,11.27
2022-12-14T17:10:02.024Z,11.97
2022-12-14T17:12:31.264Z,12.20
2022-12-14T17:14:59.869Z,11.33
2022-12-14T17:17:33.165Z,13.33
2022-12-14T17:20:01.542Z,12.68
2022-12-14T17:22:31.362Z,13.07
2022-12-14T17:25:01.020Z,12.93
2022-12-14T17:27:29.110Z,12.43
2022-12-14T17:29:58.295Z,11.13
2022-12-14T17:32:30.492Z,11.47
2022-12-14T17:34:58.744Z,11.93
2022-12-14T17:37:32.411Z,11.90
2022-12-14T17:40:02.106Z,12.13
2022-12-14T17:42:29.922Z,11.93
2022-12-14T17:45:00.820Z,11.87
2022-12-14T17:47:28.652Z,12.40
2022-12-14T17:49:56.533Z,11.30
2022-12-14T17:52:29.008Z,11.50
2022-12-14T17:54:57.805Z,11.30
2022-12-14T17:57:26.499Z,10.57
2022-12-14T18:00:15.060Z,12.13
2022-12-14T18:02:45.697Z,11.93
2022-12-14T18:05:19.649Z,13.40
2022-12-14T18:07:49.540Z,13.40
2022-12-14T18:10:18.429Z,13.87
2022-12-14T18:12:46.392Z,12.30
2022-12-14T18:15:19.293Z,13.83
2022-12-14T18:17:49.463Z,11.70
2022-12-14T18:20:17.571Z,12.40
2022-12-14T18:22:49.606Z,13.17
2022-12-14T18:25:32.292Z,12.50
2022-12-14T18:28:01.048Z,11.80
2022-12-14T18:30:34.937Z,12.23
2022-12-14T18:33:07.962Z,13.50
2022-12-14T18:35:37.058Z,13.32
2022-12-14T18:38:04.848Z,13.98
2022-12-14T18:40:32.707Z,14.70
2022-12-14T18:43:00.517Z,15.23
2022-12-14T18:45:30.639Z,12.57
2022-12-14T18:47:59.094Z,14.07
2022-12-14T18:50:29.481Z,14.60
2022-12-14T18:52:57.597Z,15.10
2022-12-14T18:55:27.378Z,15.75
2022-12-14T18:57:57.498Z,15.63
2022-12-14T19:00:27.379Z,15.10
2022-12-14T19:02:58.916Z,15.90
2022-12-14T19:05:28.405Z,15.57
2022-12-14T19:07:58.700Z,15.30
2022-12-14T19:10:30.194Z,15.97
2022-12-14T19:12:58.981Z,16.93
2022-12-14T19:15:28.677Z,16.87
2022-12-14T19:17:56.891Z,14.27
2022-12-14T19:20:26.060Z,14.40
2022-12-14T19:22:55.867Z,15.00
2022-12-14T19:25:24.679Z,15.63
2022-12-14T19:30:43.863Z,15.18
2022-12-14T19:33:11.684Z,17.58
2022-12-14T19:35:41.048Z,15.57
2022-12-14T19:38:13.858Z,15.52
2022-12-14T19:40:42.125Z,14.40
2022-12-14T19:43:09.933Z,14.80
2022-12-14T19:45:39.453Z,15.23
2022-12-14T19:48:12.725Z,15.93
2022-12-14T19:50:41.053Z,17.10
2022-12-14T19:53:10.230Z,19.00
2022-12-14T19:55:38.153Z,17.92
2022-12-14T19:58:06.042Z,16.95
2022-12-14T20:00:33.849Z,16.65
2022-12-14T20:03:01.818Z,14.68
2022-12-14T20:05:29.732Z,17.88
2022-12-14T20:07:57.530Z,15.20
2022-12-14T20:10:26.669Z,16.77
2022-12-14T20:12:54.469Z,14.60
2022-12-14T20:15:22.298Z,15.77
2022-12-14T20:17:50.097Z,17.20
2022-12-14T20:20:19.135Z,14.57
2022-12-14T20:22:47.038Z,16.13
2022-12-14T20:25:14.873Z,15.17
2022-12-14T20:27:44.061Z,15.05
2022-12-14T20:30:12.916Z,14.40
2022-12-14T20:32:41.133Z,15.88
2022-12-14T20:35:10.897Z,14.10
2022-12-14T20:37:38.916Z,14.30
2022-12-14T20:40:08.026Z,15.60
2022-12-14T20:42:35.838Z,14.50
2022-12-14T20:45:07.400Z,14.23
2022-12-14T20:47:35.591Z,14.00
2022-12-14T20:50:03.501Z,15.57
2022-12-14T20:52:31.269Z,15.27
2022-12-14T20:54:59.109Z,13.93
2022-12-14T20:57:28.265Z,14.85
2022-12-14T20:59:59.128Z,13.35
2022-12-14T21:02:28.708Z,13.77
2022-12-14T21:04:56.667Z,14.27
2022-12-14T21:07:26.548Z,14.60
2022-12-14T21:09:54.539Z,13.68
2022-12-14T21:12:21.345Z,13.13
2022-12-14T21:14:52.897Z,12.85
2022-12-14T21:17:21.937Z,13.23
2022-12-14T21:19:51.532Z,14.82
2022-12-14T21:22:21.726Z,17.52
2022-12-14T21:25:06.607Z,18.25
2022-12-14T21:27:38.125Z,19.75
2022-12-14T21:30:08.315Z,16.77
2022-12-14T21:32:37.334Z,14.07
2022-12-14T21:35:07.490Z,13.95
2022-12-14T21:37:37.946Z,13.00
2022-12-14T21:40:07.077Z,13.23
2022-12-14T21:42:33.889Z,10.35
2022-12-14T21:45:02.506Z,12.27
2022-12-14T21:47:30.790Z,9.80
2022-12-14T21:49:59.029Z,10.82
2022-12-14T21:52:29.190Z,9.23
2022-12-14T21:54:58.842Z,10.20
2022-12-14T21:57:50.366Z,11.20
2022-12-14T22:00:18.980Z,10.80
2022-12-14T22:02:46.919Z,9.77
2022-12-14T22:05:14.831Z,11.13
2022-12-14T22:07:43.989Z,10.13
2022-12-14T22:10:11.918Z,11.73
2022-12-14T22:12:39.731Z,10.50
2022-12-14T22:15:08.647Z,13.77
2022-12-14T22:17:36.436Z,10.00
2022-12-14T22:20:05.513Z,9.50
2022-12-14T22:22:33.491Z,10.80
2022-12-14T22:25:03.461Z,10.20
2022-12-14T22:27:31.757Z,10.43
2022-12-14T22:29:59.976Z,9.33
2022-12-14T22:32:28.230Z,10.10
2022-12-14T22:34:56.518Z,9.55
2022-12-14T22:37:24.455Z,8.75
2022-12-14T22:39:52.296Z,8.20
2022-12-14T22:42:21.438Z,7.50
2022-12-14T22:44:49.999Z,7.10
2022-12-14T22:47:17.865Z,7.25
2022-12-14T22:49:45.914Z,8.52
2022-12-14T22:52:13.799Z,8.60
2022-12-14T22:54:42.045Z,7.90
2022-12-14T22:57:14.817Z,7.13
2022-12-14T22:59:48.854Z,7.70
2022-12-14T23:02:16.941Z,7.33
2022-12-14T23:04:44.886Z,8.77
2022-12-14T23:07:12.786Z,7.20
2022-12-14T23:09:58.270Z,7.10
2022-12-14T23:12:43.872Z,7.23
2022-12-14T23:15:30.625Z,8.00
2022-12-14T23:18:19.729Z,6.93
2022-12-14T23:21:05.143Z,7.40
2022-12-14T23:23:50.558Z,6.82
2022-12-14T23:26:36.061Z,7.80
2022-12-14T23:29:21.513Z,6.88
2022-12-14T23:32:08.140Z,7.13
2022-12-14T23:34:53.722Z,7.50
2022-12-14T23:37:39.158Z,7.10
2022-12-14T23:40:26.076Z,7.87
2022-12-14T23:43:11.721Z,6.90
2022-12-14T23:45:57.090Z,6.63
2022-12-14T23:48:43.938Z,6.17
2022-12-14T23:51:29.259Z,6.73
2022-12-14T23:54:14.720Z,6.40
2022-12-14T23:57:00.162Z,6.47
2022-12-14T23:59:49.457Z,6.88
